Time;durP1;ratioP1;P1;durP2;ratioP2;P2;SDS_P1;SDS_P2;PMS_P1;PMS_P2;Temp;Humidity;BMP_temperature;BMP_pressure;BME280_temperature;BME280_humidity;BME280_pressure;Samples;Min_cycle;Max_cycle;Signal;HPM_P1;HPM_P2
2022/08/14 00:00:49;;;;;;;6.72;4.60;;;;;;;;;;5071985;28;20066;-44
2022/08/14 00:03:18;;;;;;;5.78;4.93;;;;;;;;;;5072114;28;20390;-45
2022/08/14 00:05:43;;;;;;;;;;;;;;;;;;5071138;28;20378;-44
2022/08/14 00:08:08;;;;;;;8.70;5.22;;;;;;;;;;5070379;28;19957;-43
2022/08/14 00:10:33;;;;;;;7.68;5.15;;;;;;;;;;5072005;28;20526;-46
2022/08/14 00:12:59;;;;;;;5.53;4.60;;;;;;;;;;5070193;28;20036;-44
2022/08/14 00:15:27;;;;;;;5.57;4.70;;;;;;;;;;5071590;28;20127;-43
2022/08/14 00:17:52;;;;;;;8.85;5.35;;;;;;;;;;5070391;28;20281;-43
2022/08/14 00:20:20;;;;;;;6.55;5.05;;;;;;;;;;5071948;28;20027;-45
2022/08/14 00:22:45;;;;;;;8.48;4.97;;;;;;;;;;5071815;28;20056;-45
2022/08/14 00:25:10;;;;;;;5.72;4.70;;;;;;;;;;5070847;28;20087;-44
2022/08/14 00:27:36;;;;;;;8.55;5.53;;;;;;;;;;5071985;28;20028;-44
2022/08/14 00:30:01;;;;;;;7.63;5.47;;;;;;;;;;5070818;28;20357;-43
2022/08/14 00:32:27;;;;;;;9.98;5.03;;;;;;;;;;5071844;28;20032;-46
2022/08/14 00:34:52;;;;;;;8.18;5.45;;;;;;;;;;5070338;28;20364;-44
2022/08/14 00:37:17;;;;;;;6.78;4.80;;;;;;;;;;5070580;28;20016;-44
2022/08/14 00:39:43;;;;;;;6.47;4.95;;;;;;;;;;5071984;28;20024;-44
2022/08/14 00:42:08;;;;;;;8.00;5.43;;;;;;;;;;5071417;28;20031;-44
2022/08/14 00:44:33;;;;;;;7.85;5.35;;;;;;;;;;5071660;28;20257;-44
2022/08/14 00:47:00;;;;;;;7.90;5.40;;;;;;;;;;5071721;28;20103;-43
2022/08/14 00:49:25;;;;;;;9.38;5.95;;;;;;;;;;5069749;28;20280;-44
2022/08/14 00:51:51;;;;;;;8.03;5.90;;;;;;;;;;5071694;28;20060;-45
2022/08/14 00:54:17;;;;;;;9.55;5.80;;;;;;;;;;5071615;28;20609;-43
2022/08/14 00:56:43;;;;;;;8.65;6.00;;;;;;;;;;5071410;28;20017;-46
2022/08/14 00:59:10;;;;;;;6.65;5.40;;;;;;;;;;5071715;28;20024;-45
2022/08/14 01:01:35;;;;;;;8.00;5.72;;;;;;;;;;5071878;28;20025;-43
2022/08/14 01:04:02;;;;;;;9.10;6.38;;;;;;;;;;5069704;28;20178;-44
2022/08/14 01:06:28;;;;;;;11.95;7.03;;;;;;;;;;5071084;28;20024;-44
2022/08/14 01:08:54;;;;;;;13.30;6.40;;;;;;;;;;5071175;28;20016;-44
2022/08/14 01:11:20;;;;;;;11.35;6.45;;;;;;;;;;5071365;28;20025;-43
2022/08/14 01:13:45;;;;;;;11.35;5.43;;;;;;;;;;5070988;28;20515;-44
2022/08/14 01:16:12;;;;;;;7.85;6.25;;;;;;;;;;5070035;28;20032;-44
2022/08/14 01:21:44;;;;;;;10.57;6.43;;;;;;;;;;5071263;28;20043;-43
2022/08/14 01:24:13;;;;;;;9.52;6.55;;;;;;;;;;5069665;28;20067;-44
2022/08/14 01:26:39;;;;;;;10.43;6.43;;;;;;;;;;5071207;28;20020;-45
2022/08/14 01:29:05;;;;;;;7.25;6.03;;;;;;;;;;5071304;28;20107;-44
2022/08/14 01:31:32;;;;;;;11.52;6.13;;;;;;;;;;5071264;28;20066;-44
2022/08/14 01:33:58;;;;;;;9.63;6.70;;;;;;;;;;5071343;28;20144;-43
2022/08/14 01:36:25;;;;;;;10.05;6.60;;;;;;;;;;5071347;28;20076;-44
2022/08/14 01:38:55;;;;;;;10.68;7.03;;;;;;;;;;5071221;28;20527;-46
2022/08/14 01:41:21;;;;;;;7.28;5.90;;;;;;;;;;5071669;28;20058;-43
2022/08/14 01:43:51;;;;;;;9.75;5.70;;;;;;;;;;5071229;28;20462;-44
2022/08/14 01:46:17;;;;;;;8.45;6.30;;;;;;;;;;5071124;28;20070;-44
2022/08/14 01:48:43;;;;;;;9.70;6.28;;;;;;;;;;5071290;28;20024;-43
2022/08/14 01:51:09;;;;;;;10.02;6.38;;;;;;;;;;5070578;28;20021;-44
2022/08/14 01:53:34;;;;;;;8.55;6.30;;;;;;;;;;5070525;28;20067;-44
2022/08/14 01:56:03;;;;;;;9.90;6.10;;;;;;;;;;5071285;28;20059;-43
2022/08/14 01:58:28;;;;;;;8.48;5.90;;;;;;;;;;5069809;28;20044;-47
2022/08/14 02:00:55;;;;;;;12.82;7.53;;;;;;;;;;5069908;28;20048;-43
2022/08/14 02:03:22;;;;;;;8.38;6.40;;;;;;;;;;5070502;28;20339;-43
2022/08/14 02:05:48;;;;;;;14.57;7.30;;;;;;;;;;5070942;28;20032;-44
2022/08/14 02:08:13;;;;;;;6.72;5.60;;;;;;;;;;5070847;28;20379;-46
2022/08/14 02:10:39;;;;;;;9.35;6.68;;;;;;;;;;5071488;28;20073;-44
2022/08/14 02:13:07;;;;;;;9.25;6.97;;;;;;;;;;5071109;28;20064;-44
2022/08/14 02:15:33;;;;;;;9.18;6.18;;;;;;;;;;5070833;28;20377;-45
2022/08/14 02:18:00;;;;;;;11.43;7.40;;;;;;;;;;5072988;28;20119;-44
2022/08/14 02:20:27;;;;;;;13.07;7.50;;;;;;;;;;5073133;28;20020;-44
2022/08/14 02:22:53;;;;;;;9.38;6.85;;;;;;;;;;5073347;28;20031;-43
2022/08/14 02:25:18;;;;;;;10.65;6.70;;;;;;;;;;5074395;28;20364;-43
2022/08/14 02:27:44;;;;;;;10.23;6.82;;;;;;;;;;5072706;28;20066;-44
2022/08/14 02:30:11;;;;;;;10.20;6.78;;;;;;;;;;5073985;28;20490;-43
2022/08/14 02:32:37;;;;;;;9.02;6.05;;;;;;;;;;5072318;28;20131;-43
2022/08/14 02:35:06;;;;;;;10.63;6.47;;;;;;;;;;5073878;28;20099;-44
2022/08/14 02:37:32;;;;;;;10.55;6.32;;;;;;;;;;5074034;28;20024;-43
2022/08/14 02:39:57;;;;;;;9.70;7.05;;;;;;;;;;5074156;28;20476;-43
2022/08/14 02:42:24;;;;;;;9.07;6.43;;;;;;;;;;5074140;28;20025;-46
2022/08/14 02:44:49;;;;;;;10.70;7.80;;;;;;;;;;5073887;28;20249;-43
2022/08/14 02:47:16;;;;;;;9.93;6.95;;;;;;;;;;5072944;28;20021;-44
2022/08/14 02:49:41;;;;;;;14.63;7.20;;;;;;;;;;5073806;28;20059;-45
2022/08/14 02:52:07;;;;;;;8.23;6.07;;;;;;;;;;5073960;28;20498;-43
2022/08/14 02:54:33;;;;;;;8.85;7.47;;;;;;;;;;5073664;28;20372;-44
2022/08/14 02:56:58;;;;;;;10.13;6.80;;;;;;;;;;5074065;28;20051;-44
2022/08/14 02:59:30;;;;;;;8.65;6.53;;;;;;;;;;5073808;28;20021;-45
2022/08/14 03:01:56;;;;;;;9.52;7.22;;;;;;;;;;5073629;28;20021;-43
2022/08/14 03:04:21;;;;;;;11.18;6.80;;;;;;;;;;5073266;28;20475;-44
2022/08/14 03:06:48;;;;;;;9.13;6.88;;;;;;;;;;5073528;28;20025;-45
2022/08/14 03:09:14;;;;;;;14.48;8.32;;;;;;;;;;5072301;28;20027;-43
2022/08/14 03:11:43;;;;;;;11.07;7.22;;;;;;;;;;5073735;28;20028;-44
2022/08/14 03:14:10;;;;;;;10.45;7.05;;;;;;;;;;5073160;28;20036;-44
2022/08/14 03:16:35;;;;;;;15.80;7.65;;;;;;;;;;5071706;28;20049;-43
2022/08/14 03:19:02;;;;;;;11.57;7.60;;;;;;;;;;5071585;28;20027;-44
2022/08/14 03:21:31;;;;;;;11.60;7.28;;;;;;;;;;5073648;28;20016;-45
2022/08/14 03:24:15;;;;;;;10.30;7.20;;;;;;;;;;5072785;28;20021;-43
2022/08/14 03:26:41;;;;;;;9.52;6.90;;;;;;;;;;5072715;28;20029;-43
2022/08/14 03:29:07;;;;;;;11.32;8.18;;;;;;;;;;5073167;28;20025;-43
2022/08/14 03:31:33;;;;;;;12.13;7.80;;;;;;;;;;5071327;28;20108;-44
2022/08/14 03:33:58;;;;;;;14.70;8.23;;;;;;;;;;5073159;28;20032;-45
2022/08/14 03:36:24;;;;;;;12.05;8.35;;;;;;;;;;5072852;28;20849;-43
2022/08/14 03:38:52;;;;;;;9.93;7.38;;;;;;;;;;5072371;28;20020;-45
2022/08/14 03:41:19;;;;;;;9.55;7.15;;;;;;;;;;5071666;28;20024;-44
2022/08/14 03:43:49;;;;;;;12.40;7.82;;;;;;;;;;5071609;28;20073;-43
2022/08/14 03:46:15;;;;;;;11.50;8.07;;;;;;;;;;5072656;28;20147;-43
2022/08/14 03:48:40;;;;;;;11.38;8.00;;;;;;;;;;5071482;28;20111;-44
2022/08/14 03:51:07;;;;;;;11.60;7.68;;;;;;;;;;5072642;28;20106;-43
2022/08/14 03:53:37;;;;;;;12.85;8.90;;;;;;;;;;5072678;28;20040;-43
2022/08/14 03:56:06;;;;;;;8.73;7.28;;;;;;;;;;5071421;28;20052;-43
2022/08/14 03:58:32;;;;;;;11.70;7.55;;;;;;;;;;5071414;28;20013;-43
2022/08/14 04:00:57;;;;;;;11.13;7.88;;;;;;;;;;5072232;28;20028;-43
2022/08/14 04:03:25;;;;;;;10.82;8.07;;;;;;;;;;5072772;28;20375;-43
2022/08/14 04:05:50;;;;;;;14.70;9.02;;;;;;;;;;5071247;28;20047;-43
2022/08/14 04:08:16;;;;;;;11.82;7.65;;;;;;;;;;5072580;28;20102;-43
2022/08/14 04:10:42;;;;;;;14.38;8.70;;;;;;;;;;5072354;28;20016;-44
2022/08/14 04:13:07;;;;;;;12.88;7.78;;;;;;;;;;5071804;28;20055;-45
2022/08/14 04:15:32;;;;;;;12.55;8.02;;;;;;;;;;5072081;28;20057;-43
2022/08/14 04:18:01;;;;;;;13.90;8.13;;;;;;;;;;5072413;28;20025;-43
2022/08/14 04:20:27;;;;;;;;;;;;;;;;;;5073200;28;20009;-44
2022/08/14 04:22:52;;;;;;;13.05;7.90;;;;;;;;;;5072236;28;20359;-44
2022/08/14 04:25:18;;;;;;;13.82;7.47;;;;;;;;;;5072067;28;20017;-44
2022/08/14 04:27:43;;;;;;;14.35;8.27;;;;;;;;;;5072126;28;20060;-43
2022/08/14 04:30:09;;;;;;;11.40;8.35;;;;;;;;;;5071389;28;20024;-44
2022/08/14 04:32:34;;;;;;;11.98;8.50;;;;;;;;;;5071951;28;20033;-43
2022/08/14 04:35:00;;;;;;;13.43;8.73;;;;;;;;;;5070321;28;20017;-44
2022/08/14 04:45:40;;;;;;;12.43;8.50;;;;;;;;;;5071715;28;20186;-44
2022/08/14 04:48:12;;;;;;;11.40;8.13;;;;;;;;;;5072046;28;20452;-43
2022/08/14 04:50:58;;;;;;;16.77;8.90;;;;;;;;;;5069686;28;20032;-43
2022/08/14 04:53:28;;;;;;;11.27;7.18;;;;;;;;;;5071443;28;20102;-44
2022/08/14 04:55:53;;;;;;;11.50;8.57;;;;;;;;;;5071617;28;20021;-43
2022/08/14 04:58:29;;;;;;;12.65;8.02;;;;;;;;;;5071987;28;20035;-42
2022/08/14 05:00:56;;;;;;;16.85;9.75;;;;;;;;;;5070000;28;20032;-43
2022/08/14 05:03:22;;;;;;;13.13;9.80;;;;;;;;;;5071494;28;20043;-44
2022/08/14 05:05:48;;;;;;;16.85;9.60;;;;;;;;;;5069629;28;20127;-44
2022/08/14 05:08:14;;;;;;;11.63;8.85;;;;;;;;;;5071908;28;20104;-43
2022/08/14 05:10:40;;;;;;;15.38;8.68;;;;;;;;;;5071643;28;20059;-43
2022/08/14 05:13:06;;;;;;;14.52;9.55;;;;;;;;;;5070977;28;20067;-45
2022/08/14 05:15:36;;;;;;;13.80;8.95;;;;;;;;;;5070771;28;20446;-44
2022/08/14 05:18:12;;;;;;;15.85;9.68;;;;;;;;;;5071287;28;20379;-43
2022/08/14 05:20:45;;;;;;;13.75;10.07;;;;;;;;;;5070975;28;20418;-44
2022/08/14 05:23:14;;;;;;;13.00;9.50;;;;;;;;;;5071218;28;20016;-43
2022/08/14 05:25:40;;;;;;;12.63;8.55;;;;;;;;;;5071339;28;20379;-44
2022/08/14 05:28:09;;;;;;;18.45;9.40;;;;;;;;;;5071473;28;20065;-44
2022/08/14 05:30:35;;;;;;;14.63;9.07;;;;;;;;;;5071409;28;20012;-46
2022/08/14 05:33:00;;;;;;;14.75;8.65;;;;;;;;;;5069803;28;20044;-43
2022/08/14 05:35:25;;;;;;;13.70;9.40;;;;;;;;;;5071567;28;20016;-43
2022/08/14 05:37:51;;;;;;;14.38;9.27;;;;;;;;;;5071020;28;20229;-44
2022/08/14 05:40:16;;;;;;;16.23;8.90;;;;;;;;;;5070182;28;20471;-45
2022/08/14 05:42:41;;;;;;;12.93;9.00;;;;;;;;;;5070009;28;20066;-43
2022/08/14 05:45:07;;;;;;;13.07;8.93;;;;;;;;;;5069447;28;20021;-44
2022/08/14 05:47:37;;;;;;;17.63;9.25;;;;;;;;;;5069727;28;20311;-44
2022/08/14 05:50:02;;;;;;;15.48;8.93;;;;;;;;;;5072143;28;20074;-43
2022/08/14 05:52:28;;;;;;;14.93;9.57;;;;;;;;;;5074783;28;20414;-45
2022/08/14 05:54:54;;;;;;;15.05;8.63;;;;;;;;;;5073826;28;20031;-43
2022/08/14 05:57:19;;;;;;;11.63;8.77;;;;;;;;;;5075245;28;20375;-44
2022/08/14 05:59:44;;;;;;;15.20;8.80;;;;;;;;;;5074593;28;20028;-43
2022/08/14 06:02:10;;;;;;;14.63;8.50;;;;;;;;;;5073441;28;20756;-43
2022/08/14 06:04:35;;;;;;;14.57;8.93;;;;;;;;;;5073630;28;20009;-43
2022/08/14 06:07:00;;;;;;;13.30;8.83;;;;;;;;;;5074706;28;20025;-44
2022/08/14 06:09:25;;;;;;;11.77;8.27;;;;;;;;;;5074421;28;20731;-43
2022/08/14 06:11:51;;;;;;;13.70;8.33;;;;;;;;;;5074853;28;20024;-44
2022/08/14 06:14:16;;;;;;;11.40;8.93;;;;;;;;;;5074735;28;20392;-43
2022/08/14 06:16:43;;;;;;;14.90;9.13;;;;;;;;;;5073278;28;20387;-44
2022/08/14 06:19:09;;;;;;;12.32;9.15;;;;;;;;;;5074414;28;20017;-43
2022/08/14 06:21:34;;;;;;;12.15;8.70;;;;;;;;;;5073284;28;20043;-43
2022/08/14 06:23:59;;;;;;;14.50;9.17;;;;;;;;;;5074465;28;20375;-44
2022/08/14 06:26:25;;;;;;;11.73;9.07;;;;;;;;;;5074229;28;20259;-45
2022/08/14 06:28:51;;;;;;;13.40;8.82;;;;;;;;;;5073906;28;20673;-43
2022/08/14 06:31:16;;;;;;;14.13;9.20;;;;;;;;;;5074350;28;20376;-43
2022/08/14 06:33:42;;;;;;;14.57;9.27;;;;;;;;;;5073581;28;20036;-43
2022/08/14 06:36:07;;;;;;;18.33;9.48;;;;;;;;;;5074359;28;20016;-43
2022/08/14 06:38:32;;;;;;;14.77;10.05;;;;;;;;;;5072397;28;20464;-44
2022/08/14 06:40:58;;;;;;;13.77;9.30;;;;;;;;;;5074357;28;20056;-44
2022/08/14 06:43:23;;;;;;;13.95;9.40;;;;;;;;;;5072406;28;20036;-43
2022/08/14 06:45:48;;;;;;;17.10;9.48;;;;;;;;;;5073853;28;20025;-46
2022/08/14 06:48:18;;;;;;;12.85;9.23;;;;;;;;;;5073820;28;20027;-44
2022/08/14 06:50:44;;;;;;;14.70;9.05;;;;;;;;;;5074024;28;20070;-42
2022/08/14 06:53:10;;;;;;;13.25;9.27;;;;;;;;;;5072783;28;20124;-45
2022/08/14 06:55:36;;;;;;;12.27;9.13;;;;;;;;;;5073885;28;20165;-42
2022/08/14 06:58:01;;;;;;;14.30;8.98;;;;;;;;;;5073939;28;20473;-43
2022/08/14 07:00:27;;;;;;;11.47;9.03;;;;;;;;;;5071964;28;20025;-43
2022/08/14 07:05:49;;;;;;;12.07;8.20;;;;;;;;;;5073485;28;20085;-45
2022/08/14 07:08:16;;;;;;;11.75;8.43;;;;;;;;;;5073876;28;20025;-43
2022/08/14 07:10:42;;;;;;;11.13;8.00;;;;;;;;;;5073405;28;20017;-46
2022/08/14 07:13:08;;;;;;;13.10;8.82;;;;;;;;;;5071716;28;20098;-43
2022/08/14 07:15:33;;;;;;;13.98;8.45;;;;;;;;;;5073608;28;20052;-43
2022/08/14 07:17:59;;;;;;;12.77;8.80;;;;;;;;;;5073404;28;20051;-43
2022/08/14 07:20:27;;;;;;;13.93;9.48;;;;;;;;;;5073663;28;20277;-43
2022/08/14 07:22:57;;;;;;;10.57;8.27;;;;;;;;;;5073247;28;20032;-44
2022/08/14 07:25:22;;;;;;;12.32;8.07;;;;;;;;;;5073335;28;20013;-43
2022/08/14 07:27:47;;;;;;;15.05;8.43;;;;;;;;;;5071569;28;20448;-47
2022/08/14 07:30:12;;;;;;;15.47;8.93;;;;;;;;;;5071795;28;20093;-45
2022/08/14 07:32:38;;;;;;;13.20;8.57;;;;;;;;;;5073678;28;20261;-44
2022/08/14 07:35:03;;;;;;;12.63;8.48;;;;;;;;;;5071672;28;20253;-43
2022/08/14 07:37:29;;;;;;;10.57;7.80;;;;;;;;;;5072318;28;20104;-45
2022/08/14 07:39:54;;;;;;;9.90;7.90;;;;;;;;;;5072935;28;20517;-43
2022/08/14 07:42:19;;;;;;;13.43;7.50;;;;;;;;;;5071552;28;20280;-43
2022/08/14 07:44:44;;;;;;;10.05;7.95;;;;;;;;;;5071365;28;20632;-43
2022/08/14 07:47:10;;;;;;;12.80;7.33;;;;;;;;;;5071769;28;20391;-45
2022/08/14 07:49:35;;;;;;;11.80;7.33;;;;;;;;;;5071450;28;20250;-44
2022/08/14 07:52:01;;;;;;;9.65;6.53;;;;;;;;;;5072493;28;20245;-42
2022/08/14 07:54:26;;;;;;;10.13;6.80;;;;;;;;;;5072743;28;20074;-45
2022/08/14 07:56:51;;;;;;;8.25;6.90;;;;;;;;;;5072590;28;20108;-40
2022/08/14 07:59:19;;;;;;;12.70;7.33;;;;;;;;;;5072683;28;20028;-44
2022/08/14 08:01:45;;;;;;;10.85;7.00;;;;;;;;;;5072866;28;20668;-43
2022/08/14 08:04:11;;;;;;;10.93;7.60;;;;;;;;;;5072642;28;20052;-46
2022/08/14 08:06:37;;;;;;;8.18;6.95;;;;;;;;;;5071344;28;20031;-45
2022/08/14 08:09:02;;;;;;;9.32;7.65;;;;;;;;;;5072870;28;20047;-43
2022/08/14 08:11:28;;;;;;;9.93;7.50;;;;;;;;;;5071728;28;20032;-44
2022/08/14 08:13:54;;;;;;;11.90;7.15;;;;;;;;;;5071526;28;20036;-44
2022/08/14 08:16:23;;;;;;;11.57;7.28;;;;;;;;;;5072513;28;20049;-42
2022/08/14 08:18:49;;;;;;;8.48;6.57;;;;;;;;;;5071771;28;20540;-46
2022/08/14 08:21:14;;;;;;;12.23;7.03;;;;;;;;;;5072347;28;20020;-44
2022/08/14 08:23:39;;;;;;;12.68;7.43;;;;;;;;;;5070662;28;20024;-44
2022/08/14 08:26:05;;;;;;;13.33;7.50;;;;;;;;;;5072027;28;20111;-41
2022/08/14 08:28:30;;;;;;;10.77;7.43;;;;;;;;;;5072224;28;20012;-43
2022/08/14 08:30:57;;;;;;;11.17;7.43;;;;;;;;;;5070771;28;20012;-44
2022/08/14 08:33:25;;;;;;;9.18;7.10;;;;;;;;;;5071851;28;20456;-43
2022/08/14 08:35:50;;;;;;;10.68;7.05;;;;;;;;;;5071757;28;20051;-42
2022/08/14 08:38:17;;;;;;;11.13;7.43;;;;;;;;;;5072243;28;20103;-42
2022/08/14 08:40:44;;;;;;;15.68;6.97;;;;;;;;;;5071605;28;20024;-41
2022/08/14 08:43:23;;;;;;;13.07;7.45;;;;;;;;;;5070536;28;20016;-43
2022/08/14 08:45:56;;;;;;;10.55;7.05;;;;;;;;;;5071620;28;20452;-44
2022/08/14 08:48:30;;;;;;;11.98;7.90;;;;;;;;;;5071573;28;20384;-43
2022/08/14 08:50:59;;;;;;;9.38;6.78;;;;;;;;;;5071863;28;20016;-43
2022/08/14 08:53:35;;;;;;;7.88;6.68;;;;;;;;;;5071893;28;20040;-43
2022/08/14 08:56:00;;;;;;;10.43;6.97;;;;;;;;;;5070029;28;20033;-45
2022/08/14 08:58:26;;;;;;;11.82;7.32;;;;;;;;;;5071725;28;20471;-40
2022/08/14 09:00:53;;;;;;;11.10;6.63;;;;;;;;;;5071618;28;20926;-44
2022/08/14 09:03:20;;;;;;;14.50;6.28;;;;;;;;;;5069996;28;20035;-42
2022/08/14 09:05:51;;;;;;;11.00;6.55;;;;;;;;;;5070093;28;20020;-42
2022/08/14 09:08:18;;;;;;;11.07;6.68;;;;;;;;;;5071158;28;20021;-42
2022/08/14 09:10:44;;;;;;;9.93;6.15;;;;;;;;;;5071272;28;20017;-43
2022/08/14 09:13:12;;;;;;;9.98;6.85;;;;;;;;;;5071491;28;20032;-43
2022/08/14 09:15:38;;;;;;;9.90;6.32;;;;;;;;;;5071108;28;20467;-44
2022/08/14 09:18:04;;;;;;;8.35;6.47;;;;;;;;;;5071353;28;20054;-43
2022/08/14 09:20:30;;;;;;;7.72;5.80;;;;;;;;;;5071044;28;20029;-44
2022/08/14 09:22:56;;;;;;;8.48;5.70;;;;;;;;;;5070801;28;20021;-43
2022/08/14 09:25:22;;;;;;;7.18;6.07;;;;;;;;;;5075084;28;20108;-43
2022/08/14 09:27:47;;;;;;;11.07;6.20;;;;;;;;;;5074316;28;20074;-43
2022/08/14 09:30:12;;;;;;;10.75;6.72;;;;;;;;;;5075622;28;20472;-43
2022/08/14 09:32:52;;;;;;;16.47;6.50;;;;;;;;;;5074984;28;20035;-44
2022/08/14 09:35:25;;;;;;;10.32;5.55;;;;;;;;;;5075105;28;20633;-42
2022/08/14 09:37:54;;;;;;;9.95;5.80;;;;;;;;;;5075293;28;20028;-44
2022/08/14 09:40:19;;;;;;;;;;;;;;;;;;5075956;28;20020;-42
2022/08/14 09:43:11;;;;;;;6.67;5.63;;;;;;;;;;5073759;28;19904;-43
2022/08/14 09:45:47;;;;;;;13.75;6.40;;;;;;;;;;5066734;28;20071;-43
2022/08/14 09:48:14;;;;;;;11.30;6.60;;;;;;;;;;5075126;28;20097;-42
2022/08/14 09:50:52;;;;;;;8.90;5.85;;;;;;;;;;5074832;28;20434;-44
2022/08/14 09:53:35;;;;;;;9.38;5.88;;;;;;;;;;5073259;28;20036;-42
2022/08/14 09:56:03;;;;;;;10.98;6.10;;;;;;;;;;5073230;28;20032;-41
2022/08/14 09:58:35;;;;;;;11.05;5.22;;;;;;;;;;5074800;28;20059;-43
2022/08/14 10:01:06;;;;;;;9.93;6.10;;;;;;;;;;5074657;28;20024;-43
2022/08/14 10:03:33;;;;;;;10.38;5.82;;;;;;;;;;5073742;28;20025;-41
2022/08/14 10:06:04;;;;;;;8.32;5.43;;;;;;;;;;5074715;28;20105;-42
2022/08/14 10:08:39;;;;;;;8.52;6.03;;;;;;;;;;5074210;28;20036;-44
2022/08/14 10:11:13;;;;;;;6.38;4.53;;;;;;;;;;5074131;28;20021;-43
2022/08/14 10:13:40;;;;;;;5.18;4.68;;;;;;;;;;5074497;28;20052;-41
2022/08/14 10:16:05;;;;;;;7.18;5.00;;;;;;;;;;5074147;28;20377;-44
2022/08/14 10:18:32;;;;;;;5.67;5.07;;;;;;;;;;5074291;28;20023;-43
2022/08/14 10:20:59;;;;;;;7.88;5.60;;;;;;;;;;5074199;28;20256;-43
2022/08/14 10:23:27;;;;;;;8.23;5.15;;;;;;;;;;5073908;28;20015;-45
2022/08/14 10:25:56;;;;;;;8.37;5.67;;;;;;;;;;5074067;28;20738;-44
2022/08/14 10:28:22;;;;;;;8.15;5.10;;;;;;;;;;5074112;28;20020;-43
2022/08/14 10:30:51;;;;;;;18.77;5.72;;;;;;;;;;5072944;28;20490;-44
2022/08/14 10:33:28;;;;;;;6.88;5.22;;;;;;;;;;5074103;28;20040;-44
2022/08/14 10:35:54;;;;;;;8.63;5.00;;;;;;;;;;5073501;28;20028;-44
2022/08/14 10:38:33;;;;;;;11.13;6.68;;;;;;;;;;5073814;28;20017;-41
2022/08/14 10:41:12;;;;;;;9.57;6.18;;;;;;;;;;5073816;28;20479;-45
2022/08/14 10:43:39;;;;;;;8.75;5.80;;;;;;;;;;5073917;28;20040;-43
2022/08/14 10:46:10;;;;;;;8.32;5.93;;;;;;;;;;5074083;28;20017;-44
2022/08/14 10:48:35;;;;;;;9.43;5.50;;;;;;;;;;5072414;28;20313;-43
2022/08/14 10:51:01;;;;;;;15.27;6.27;;;;;;;;;;5074292;28;20016;-44
2022/08/14 10:53:31;;;;;;;7.50;5.90;;;;;;;;;;5072459;28;20712;-44
2022/08/14 10:55:57;;;;;;;9.77;6.00;;;;;;;;;;5073956;28;20667;-43
2022/08/14 10:58:26;;;;;;;9.63;6.45;;;;;;;;;;5072766;28;20008;-44
2022/08/14 11:00:56;;;;;;;9.88;6.03;;;;;;;;;;5072901;28;20077;-45
2022/08/14 11:03:24;;;;;;;6.88;5.65;;;;;;;;;;5073126;28;20472;-43
2022/08/14 11:05:50;;;;;;;8.95;5.93;;;;;;;;;;5072251;28;20021;-44
2022/08/14 11:08:18;;;;;;;7.65;5.90;;;;;;;;;;5072141;28;20020;-42
2022/08/14 11:10:54;;;;;;;6.63;5.93;;;;;;;;;;5072207;28;20020;-44
2022/08/14 11:13:21;;;;;;;7.57;5.60;;;;;;;;;;5073542;28;20074;-44
2022/08/14 11:15:47;;;;;;;9.18;5.90;;;;;;;;;;5071398;28;20110;-44
2022/08/14 11:18:13;;;;;;;7.75;5.72;;;;;;;;;;5072181;28;20065;-44
2022/08/14 11:20:41;;;;;;;13.35;5.60;;;;;;;;;;5072249;28;20020;-44
2022/08/14 11:23:08;;;;;;;7.63;5.47;;;;;;;;;;5073549;28;20395;-44
2022/08/14 11:25:36;;;;;;;8.82;5.70;;;;;;;;;;5071977;28;20024;-43
2022/08/14 11:28:02;;;;;;;9.37;6.30;;;;;;;;;;5072010;28;20476;-43
2022/08/14 11:30:29;;;;;;;8.82;6.18;;;;;;;;;;5071587;28;20350;-43
2022/08/14 11:32:55;;;;;;;7.85;6.47;;;;;;;;;;5072887;28;20404;-44
2022/08/14 11:35:22;;;;;;;10.18;5.88;;;;;;;;;;5071921;28;20016;-43
2022/08/14 11:37:50;;;;;;;14.38;6.13;;;;;;;;;;5072496;28;20016;-43
2022/08/14 11:40:16;;;;;;;10.15;5.38;;;;;;;;;;5071493;28;20029;-46
2022/08/14 11:42:44;;;;;;;7.93;4.60;;;;;;;;;;5072320;28;20032;-44
2022/08/14 11:45:10;;;;;;;9.43;4.13;;;;;;;;;;5071297;28;20031;-43
2022/08/14 11:47:36;;;;;;;7.97;3.88;;;;;;;;;;5072995;28;20100;-42
2022/08/14 11:50:10;;;;;;;4.15;3.75;;;;;;;;;;5072442;28;20514;-44
2022/08/14 11:52:36;;;;;;;3.75;3.40;;;;;;;;;;5071044;28;20415;-43
2022/08/14 11:55:06;;;;;;;5.40;3.58;;;;;;;;;;5072619;28;20543;-42
2022/08/14 11:57:32;;;;;;;8.65;3.75;;;;;;;;;;5071956;28;20024;-45
2022/08/14 12:00:04;;;;;;;6.90;3.57;;;;;;;;;;5072526;28;20080;-43
2022/08/14 12:02:30;;;;;;;6.35;3.92;;;;;;;;;;5072504;28;20249;-45
2022/08/14 12:04:55;;;;;;;8.40;4.03;;;;;;;;;;5072197;28;20081;-44
2022/08/14 12:07:21;;;;;;;5.43;3.95;;;;;;;;;;5070900;28;20762;-43
2022/08/14 12:09:50;;;;;;;5.78;3.83;;;;;;;;;;5072288;28;20021;-43
2022/08/14 12:12:26;;;;;;;4.95;3.85;;;;;;;;;;5071945;28;20028;-43
2022/08/14 12:14:55;;;;;;;5.57;3.80;;;;;;;;;;5072163;28;20391;-43
2022/08/14 12:17:21;;;;;;;5.10;3.42;;;;;;;;;;5070821;28;20048;-44
2022/08/14 12:19:48;;;;;;;4.60;3.45;;;;;;;;;;5070954;28;20383;-45
2022/08/14 12:22:13;;;;;;;6.32;3.63;;;;;;;;;;5072376;28;20023;-43
2022/08/14 12:24:41;;;;;;;4.67;4.00;;;;;;;;;;5071732;28;20100;-44
2022/08/14 12:27:06;;;;;;;5.38;3.97;;;;;;;;;;5072102;28;20596;-44
2022/08/14 12:29:31;;;;;;;5.97;4.27;;;;;;;;;;5071569;28;20020;-43
2022/08/14 12:31:58;;;;;;;8.73;4.00;;;;;;;;;;5070671;28;20066;-43
2022/08/14 12:34:29;;;;;;;7.78;3.65;;;;;;;;;;5071696;28;20285;-43
2022/08/14 12:37:05;;;;;;;8.50;4.20;;;;;;;;;;5070455;28;20017;-43
2022/08/14 12:39:30;;;;;;;5.45;4.65;;;;;;;;;;5069606;28;20020;-43
2022/08/14 12:42:05;;;;;;;9.10;4.57;;;;;;;;;;5071868;28;20017;-44
2022/08/14 12:44:38;;;;;;;5.20;4.47;;;;;;;;;;5070600;28;20111;-42
2022/08/14 12:47:04;;;;;;;16.13;4.57;;;;;;;;;;5071476;28;20056;-43
2022/08/14 12:49:30;;;;;;;5.38;4.20;;;;;;;;;;5071690;28;20028;-45
2022/08/14 12:51:56;;;;;;;5.38;4.70;;;;;;;;;;5069403;28;20016;-43
2022/08/14 12:54:21;;;;;;;4.88;4.28;;;;;;;;;;5072007;28;20032;-43
2022/08/14 12:56:47;;;;;;;6.68;4.93;;;;;;;;;;5070255;28;20379;-43
2022/08/14 12:59:13;;;;;;;4.85;4.03;;;;;;;;;;5069932;28;20020;-43
2022/08/14 13:01:39;;;;;;;6.18;5.32;;;;;;;;;;5069718;28;20036;-44
2022/08/14 13:04:11;;;;;;;8.35;4.93;;;;;;;;;;5071404;28;20099;-44
2022/08/14 13:06:37;;;;;;;5.47;4.28;;;;;;;;;;5071428;28;20032;-43
2022/08/14 13:09:03;;;;;;;5.47;4.68;;;;;;;;;;5069810;28;20016;-45
2022/08/14 13:11:35;;;;;;;7.57;4.45;;;;;;;;;;5070249;28;20031;-45
2022/08/14 13:14:02;;;;;;;6.05;4.97;;;;;;;;;;5069575;28;20028;-44
2022/08/14 13:16:27;;;;;;;6.20;4.78;;;;;;;;;;5071282;28;20458;-43
2022/08/14 13:19:00;;;;;;;6.38;4.97;;;;;;;;;;5071520;28;20104;-43
2022/08/14 13:21:26;;;;;;;4.97;4.40;;;;;;;;;;5071433;28;20027;-43
2022/08/14 13:23:52;;;;;;;5.22;3.97;;;;;;;;;;5070507;28;20012;-44
2022/08/14 13:26:17;;;;;;;5.60;4.32;;;;;;;;;;5071788;28;20023;-41
2022/08/14 13:28:43;;;;;;;6.57;4.72;;;;;;;;;;5070928;28;20523;-43
2022/08/14 13:31:11;;;;;;;6.82;3.90;;;;;;;;;;5071049;28;20062;-44
2022/08/14 13:33:37;;;;;;;6.80;4.70;;;;;;;;;;5071156;28;20025;-44
2022/08/14 13:36:03;;;;;;;28.52;5.55;;;;;;;;;;5071632;28;20413;-44
2022/08/14 13:38:28;;;;;;;7.68;4.70;;;;;;;;;;5070039;28;20024;-46
2022/08/14 13:40:54;;;;;;;5.45;4.68;;;;;;;;;;5070901;28;20025;-45
2022/08/14 13:43:21;;;;;;;8.18;4.47;;;;;;;;;;5070265;28;20029;-44
2022/08/14 13:45:46;;;;;;;5.32;4.05;;;;;;;;;;5069550;28;20025;-41
2022/08/14 13:48:12;;;;;;;5.50;3.97;;;;;;;;;;5071283;28;20035;-43
2022/08/14 13:50:39;;;;;;;7.25;4.00;;;;;;;;;;5070725;28;20013;-43
2022/08/14 13:53:05;;;;;;;5.13;3.60;;;;;;;;;;5070568;28;20036;-43
2022/08/14 13:55:31;;;;;;;5.18;3.78;;;;;;;;;;5070550;28;20372;-44
2022/08/14 13:58:00;;;;;;;8.15;4.07;;;;;;;;;;5070433;28;20028;-45
2022/08/14 14:00:25;;;;;;;4.63;3.85;;;;;;;;;;5070983;28;20020;-43
2022/08/14 14:02:51;;;;;;;5.65;3.70;;;;;;;;;;5070988;28;20096;-44
2022/08/14 14:05:18;;;;;;;7.88;3.95;;;;;;;;;;5070528;28;20047;-46
2022/08/14 14:07:45;;;;;;;5.68;4.10;;;;;;;;;;5070593;28;20086;-44
2022/08/14 14:10:12;;;;;;;6.53;3.92;;;;;;;;;;5070860;28;20040;-43
2022/08/14 14:12:38;;;;;;;4.80;3.53;;;;;;;;;;5074155;28;20103;-45
2022/08/14 14:15:07;;;;;;;7.57;4.18;;;;;;;;;;5072810;28;20020;-45
2022/08/14 14:17:36;;;;;;;4.35;3.95;;;;;;;;;;5074300;28;20022;-44
2022/08/14 14:20:01;;;;;;;;;;;;;;;;;;5075063;28;20027;-46
2022/08/14 14:22:26;;;;;;;4.93;3.85;;;;;;;;;;5074312;28;19904;-43
2022/08/14 14:24:52;;;;;;;5.85;4.05;;;;;;;;;;5074377;28;20616;-43
2022/08/14 14:27:18;;;;;;;7.97;4.05;;;;;;;;;;5072991;28;20016;-43
2022/08/14 14:29:47;;;;;;;5.25;4.05;;;;;;;;;;5074137;28;20752;-44
2022/08/14 14:32:14;;;;;;;5.75;3.72;;;;;;;;;;5072959;28;20551;-43
2022/08/14 14:34:40;;;;;;;10.15;4.65;;;;;;;;;;5074029;28;20130;-44
2022/08/14 14:37:10;;;;;;;6.68;3.65;;;;;;;;;;5072508;28;20099;-45
2022/08/14 14:39:36;;;;;;;5.53;4.07;;;;;;;;;;5074206;28;20055;-43
2022/08/14 14:42:01;;;;;;;6.63;4.20;;;;;;;;;;5072650;28;20451;-44
2022/08/14 14:44:31;;;;;;;6.13;4.47;;;;;;;;;;5073731;28;20013;-44
2022/08/14 14:46:57;;;;;;;4.00;3.55;;;;;;;;;;5073795;28;20035;-43
2022/08/14 14:49:23;;;;;;;5.30;4.35;;;;;;;;;;5074306;28;20345;-43
2022/08/14 14:51:49;;;;;;;5.70;4.55;;;;;;;;;;5072002;28;20483;-44